Time;durP1;ratioP1;P1;durP2;ratioP2;P2;SDS_P1;SDS_P2;PMS_P1;PMS_P2;Temp;Humidity;BMP_temperature;BMP_pressure;BME280_temperature;BME280_humidity;BME280_pressure;Samples;Min_cycle;Max_cycle;Signal;HPM_P1;HPM_P2
2023/09/14 00:02:25;;;;;;;8.10;2.13;;;14.00;99.90;;;;;;4863962;29;20045;-89
2023/09/14 00:05:40;;;;;;;7.45;2.38;;;14.00;99.90;;;;;;4852461;29;20044;-89
2023/09/14 00:08:46;;;;;;;7.68;2.20;;;14.00;99.90;;;;;;4851491;29;20037;-89
2023/09/14 00:11:49;;;;;;;;;;;;;;;;;;;;;
2023/09/14 00:14:54;;;;;;;;;;;;;;;;;;;;;
2023/09/14 00:18:02;;;;;;;9.63;2.20;;;14.00;99.90;;;;;;4855697;29;20033;-90
2023/09/14 00:20:44;;;;;;;6.40;1.95;;;14.10;99.90;;;;;;4824711;29;20044;-89
2023/09/14 00:23:30;;;;;;;7.00;2.00;;;14.00;99.90;;;;;;4867130;29;20037;-90
2023/09/14 00:25:58;;;;;;;9.93;2.40;;;14.00;99.90;;;;;;4852414;29;20044;-89
2023/09/14 00:28:31;;;;;;;5.55;2.00;;;14.10;99.90;;;;;;4852691;29;20068;-89
2023/09/14 00:31:17;;;;;;;7.38;2.50;;;14.10;99.90;;;;;;4867605;29;20123;-89
2023/09/14 00:37:10;;;;;;;7.18;2.15;;;14.00;99.90;;;;;;4843807;29;20033;-89
2023/09/14 00:39:52;;;;;;;4.40;1.90;;;14.00;99.90;;;;;;4868209;29;20048;-89
2023/09/14 00:42:34;;;;;;;;;;;;;;;;;;;;;
2023/09/14 00:45:18;;;;;;;6.78;2.30;;;14.00;99.90;;;;;;4867507;29;20041;-89
2023/09/14 00:48:17;;;;;;;;;;;;;;;;;;;;;
2023/09/14 00:51:06;;;;;;;8.25;2.30;;;13.90;99.90;;;;;;4883648;29;20410;-89
2023/09/14 00:53:54;;;;;;;;;;;;;;;;;;;;;
2023/09/14 00:56:29;;;;;;;6.47;2.03;;;13.90;99.90;;;;;;4866914;29;20357;-89
2023/09/14 00:59:08;;;;;;;7.65;2.20;;;13.90;99.90;;;;;;4868574;29;20057;-90
2023/09/14 01:01:57;;;;;;;;;;;;;;;;;;;;;
2023/09/14 01:04:29;;;;;;;7.63;2.15;;;13.80;99.90;;;;;;4882121;29;20037;-89
2023/09/14 01:07:23;;;;;;;7.38;2.20;;;13.80;99.90;;;;;;4852822;29;20039;-89
2023/09/14 01:10:04;;;;;;;9.85;2.40;;;13.80;99.90;;;;;;4848592;29;20060;-89
2023/09/14 01:12:36;;;;;;;7.68;2.10;;;13.70;99.90;;;;;;4834098;29;20124;-89
2023/09/14 01:15:27;;;;;;;9.00;1.92;;;13.60;99.90;;;;;;4834642;29;20102;-89
2023/09/14 01:18:35;;;;;;;6.15;2.10;;;13.60;99.90;;;;;;4833655;29;20116;-89
2023/09/14 01:21:25;;;;;;;5.70;2.00;;;13.60;99.90;;;;;;4840007;29;20033;-89
2023/09/14 01:24:34;;;;;;;;;;;;;;;;;;;;;
2023/09/14 01:27:15;;;;;;;6.88;2.20;;;13.50;99.90;;;;;;4866543;29;20044;-90
2023/09/14 01:29:54;;;;;;;9.65;2.42;;;13.40;99.90;;;;;;4866718;29;20048;-90
2023/09/14 01:32:40;;;;;;;7.72;2.65;;;13.40;99.90;;;;;;4851682;29;20041;-89
2023/09/14 01:35:39;;;;;;;8.18;2.60;;;13.30;99.90;;;;;;4858129;29;20060;-89
2023/09/14 01:38:27;;;;;;;9.15;2.63;;;13.30;99.90;;;;;;4882396;29;20132;-89
2023/09/14 01:41:28;;;;;;;;;;;;;;;;;;;;;
2023/09/14 01:44:00;;;;;;;8.07;2.50;;;13.20;99.90;;;;;;4848009;29;20041;-88
2023/09/14 01:46:37;;;;;;;8.20;3.00;;;13.10;99.90;;;;;;4832820;29;20136;-89
2023/09/14 01:49:21;;;;;;;;;;;;;;;;;;;;;
2023/09/14 01:51:52;;;;;;;9.00;2.65;;;13.10;99.90;;;;;;4821386;29;20322;-90
2023/09/14 01:55:07;;;;;;;10.30;2.97;;;13.00;99.90;;;;;;4849165;29;20354;-89
2023/09/14 01:57:33;;;;;;;11.48;2.72;;;13.00;99.90;;;;;;4840658;29;20049;-89
2023/09/14 02:00:25;;;;;;;7.00;2.85;;;13.00;99.90;;;;;;4851037;29;20096;-89
2023/09/14 02:03:01;;;;;;;6.55;2.75;;;13.00;99.90;;;;;;4851788;29;20068;-89
2023/09/14 02:05:58;;;;;;;7.47;2.67;;;12.90;99.90;;;;;;4868994;29;20108;-89
2023/09/14 02:08:50;;;;;;;10.48;2.80;;;12.90;99.90;;;;;;4866128;29;20357;-89
2023/09/14 02:11:21;;;;;;;7.10;3.00;;;12.90;99.90;;;;;;4865897;29;20402;-90
2023/09/14 02:14:08;;;;;;;5.88;3.03;;;12.80;99.90;;;;;;4854336;29;20108;-89
2023/09/14 02:16:46;;;;;;;6.43;3.05;;;12.80;99.90;;;;;;4847637;29;20046;-90
2023/09/14 02:22:08;;;;;;;10.07;3.10;;;12.70;99.90;;;;;;4853830;29;20323;-90
2023/09/14 02:24:52;;;;;;;;;;;;;;;;;;;;;
2023/09/14 02:27:46;;;;;;;10.48;3.20;;;12.80;99.90;;;;;;4865687;29;20051;-89
2023/09/14 02:30:27;;;;;;;7.93;3.10;;;12.70;99.90;;;;;;4866029;29;20044;-90
2023/09/14 02:33:11;;;;;;;7.55;3.25;;;12.70;99.90;;;;;;4851956;29;20076;-89
2023/09/14 02:35:59;;;;;;;;;;;12.60;99.90;;;;;;4868548;29;20040;-90
2023/09/14 02:38:45;;;;;;;;;;;;;;;;;;;;;
2023/09/14 02:41:17;;;;;;;7.75;2.95;;;12.50;99.90;;;;;;4865376;29;20858;-89
2023/09/14 02:43:46;;;;;;;7.90;3.33;;;12.50;99.90;;;;;;4836138;29;20453;-89
2023/09/14 02:46:28;;;;;;;7.82;3.50;;;12.50;99.90;;;;;;4865317;29;20425;-89
2023/09/14 02:48:59;;;;;;;7.55;3.20;;;12.50;99.90;;;;;;4865265;29;20323;-91
2023/09/14 02:51:37;;;;;;;9.93;3.60;;;12.50;99.90;;;;;;4866314;29;20107;-90
2023/09/14 02:54:17;;;;;;;7.32;3.50;;;12.40;99.90;;;;;;4880755;29;20422;-89
2023/09/14 02:56:58;;;;;;;10.32;3.30;;;12.40;99.90;;;;;;4865471;29;20049;-89
2023/09/14 02:59:39;;;;;;;8.80;3.50;;;12.40;99.90;;;;;;4854240;29;20053;-89
2023/09/14 03:02:21;;;;;;;;;;;;;;;;;;;;;
2023/09/14 03:05:00;;;;;;;10.82;3.70;;;12.40;99.90;;;;;;4865159;29;20041;-91
2023/09/14 03:07:34;;;;;;;9.85;3.30;;;12.30;99.90;;;;;;4851884;29;20372;-90
2023/09/14 03:10:03;;;;;;;6.97;3.28;;;12.30;99.90;;;;;;4849621;29;20090;-89
2023/09/14 03:12:37;;;;;;;7.60;2.92;;;12.30;99.90;;;;;;4835135;29;20089;-89
2023/09/14 03:15:30;;;;;;;6.85;3.30;;;12.30;99.90;;;;;;4855112;29;20117;-89
2023/09/14 03:18:19;;;;;;;6.35;3.53;;;12.30;99.90;;;;;;4865579;29;20040;-90
2023/09/14 03:21:08;;;;;;;;;;;;;;;;;;;;;
2023/09/14 03:23:41;;;;;;;7.15;2.90;;;12.30;99.90;;;;;;4882322;29;20355;-89
2023/09/14 03:26:18;;;;;;;8.23;3.47;;;12.20;99.90;;;;;;4867691;29;20099;-90
2023/09/14 03:29:19;;;;;;;10.30;3.40;;;12.20;99.90;;;;;;4854754;29;20112;-90
2023/09/14 03:32:00;;;;;;;8.25;3.38;;;12.20;99.90;;;;;;4857233;29;20378;-91
2023/09/14 03:34:37;;;;;;;8.18;2.80;;;12.20;99.90;;;;;;4852855;29;20064;-89
2023/09/14 03:37:07;;;;;;;9.73;3.22;;;12.20;99.90;;;;;;4868595;29;20117;-89
2023/09/14 03:39:45;;;;;;;10.18;3.38;;;12.10;99.90;;;;;;4868787;29;20041;-89
2023/09/14 03:42:20;;;;;;;;;;;12.10;99.90;;;;;;4869131;29;20036;-90
2023/09/14 03:45:00;;;;;;;7.50;3.00;;;12.10;99.90;;;;;;4868937;29;20023;-89
2023/09/14 03:47:55;;;;;;;;;;;;;;;;;;;;;
2023/09/14 03:50:51;;;;;;;8.60;3.20;;;12.00;99.90;;;;;;4868427;29;20052;-90
2023/09/14 03:53:18;;;;;;;;;;;12.10;99.90;;;;;;4869050;29;20212;-89
2023/09/14 03:56:02;;;;;;;8.10;3.40;;;12.00;99.90;;;;;;4868160;29;19924;-89
2023/09/14 03:58:31;;;;;;;8.60;3.30;;;11.90;99.90;;;;;;4868715;29;20089;-89
2023/09/14 04:01:03;;;;;;;9.63;3.35;;;11.90;99.90;;;;;;4853427;29;20113;-89
2023/09/14 04:03:43;;;;;;;;;;;;;;;;;;;;;
2023/09/14 04:06:29;;;;;;;;;;;;;;;;;;;;;
2023/09/14 04:09:06;;;;;;;10.07;4.03;;;11.90;99.90;;;;;;4870771;29;20169;-89
2023/09/14 04:11:41;;;;;;;7.68;3.67;;;11.90;99.90;;;;;;4838543;29;20060;-89
2023/09/14 04:14:27;;;;;;;9.27;3.45;;;11.90;99.90;;;;;;4852670;29;20040;-89
2023/09/14 04:17:00;;;;;;;9.35;3.95;;;12.00;99.90;;;;;;4853149;29;20037;-89
2023/09/14 04:19:47;;;;;;;7.80;3.33;;;11.90;99.90;;;;;;4876665;29;20032;-89
2023/09/14 04:22:18;;;;;;;10.15;3.88;;;12.00;99.90;;;;;;4871983;29;20394;-89
2023/09/14 04:24:49;;;;;;;11.65;4.20;;;12.00;99.90;;;;;;4851315;29;20037;-89
2023/09/14 04:27:28;;;;;;;10.43;4.15;;;12.00;99.90;;;;;;4868836;29;20043;-89
2023/09/14 04:29:54;;;;;;;7.65;3.53;;;12.00;99.90;;;;;;4867618;29;20043;-89
2023/09/14 04:32:23;;;;;;;9.77;4.07;;;12.10;99.90;;;;;;4852480;29;20055;-89
2023/09/14 04:35:12;;;;;;;7.65;3.95;;;12.10;99.90;;;;;;4868782;29;20045;-90
2023/09/14 04:38:00;;;;;;;8.23;4.13;;;12.10;99.90;;;;;;4869119;29;20044;-89
2023/09/14 04:40:37;;;;;;;;;;;;;;;;;;;;;
2023/09/14 04:43:06;;;;;;;8.90;4.22;;;12.00;99.90;;;;;;4867969;29;20044;-90
2023/09/14 04:45:43;;;;;;;8.95;4.60;;;12.00;99.90;;;;;;4851124;29;20029;-89
2023/09/14 04:48:42;;;;;;;;;;;;;;;;;;;;;
2023/09/14 04:51:24;;;;;;;;;;;;;;;;;;;;;
2023/09/14 04:54:19;;;;;;;8.60;4.50;;;12.10;99.90;;;;;;4867688;29;20418;-89
2023/09/14 04:56:53;;;;;;;11.93;4.15;;;12.10;99.90;;;;;;4835812;29;20198;-91
2023/09/14 05:00:00;;;;;;;;;;;;;;;;;;;;;
2023/09/14 05:02:30;;;;;;;9.38;4.60;;;12.10;99.90;;;;;;4863212;29;20049;-89
2023/09/14 05:05:16;;;;;;;11.48;4.70;;;12.00;99.90;;;;;;4848938;29;20038;-89
2023/09/14 05:07:47;;;;;;;12.05;4.70;;;12.00;99.90;;;;;;4846162;29;20037;-89
2023/09/14 05:10:37;;;;;;;;;;;;;;;;;;;;;
2023/09/14 05:13:32;;;;;;;7.55;4.38;;;12.00;99.90;;;;;;4834381;29;20065;-89
2023/09/14 05:16:08;;;;;;;10.85;4.15;;;12.00;99.90;;;;;;4845662;29;20037;-88
2023/09/14 05:19:00;;;;;;;;;;;;;;;;;;;;;
2023/09/14 05:21:39;;;;;;;8.88;3.80;;;12.10;99.90;;;;;;4860635;29;20124;-89
2023/09/14 05:24:13;;;;;;;8.85;3.78;;;12.10;99.90;;;;;;4847247;29;20070;-89
2023/09/14 05:26:51;;;;;;;9.40;3.35;;;12.20;99.90;;;;;;4866695;29;20322;-89
2023/09/14 05:29:53;;;;;;;10.05;3.50;;;12.20;99.90;;;;;;4851565;29;20338;-88
2023/09/14 05:32:52;;;;;;;7.93;3.22;;;12.20;99.90;;;;;;4852675;29;20120;-89
2023/09/14 05:35:21;;;;;;;10.38;3.55;;;12.20;99.90;;;;;;4830871;29;20036;-89
2023/09/14 05:38:10;;;;;;;9.02;3.60;;;12.20;99.90;;;;;;4851305;29;20402;-88
2023/09/14 05:41:20;;;;;;;;;;;;;;;;;;;;;
2023/09/14 05:43:59;;;;;;;9.35;3.67;;;12.20;99.90;;;;;;4867349;29;20041;-88
2023/09/14 05:46:46;;;;;;;;;;;;;;;;;;;;;
2023/09/14 05:49:50;;;;;;;;;;;;;;;;;;;;;
2023/09/14 05:52:48;;;;;;;13.60;3.60;;;12.30;99.90;;;;;;4845795;29;20034;-88
2023/09/14 05:55:28;;;;;;;9.30;3.25;;;12.20;99.90;;;;;;4820094;29;20088;-89
2023/09/14 05:58:06;;;;;;;7.90;2.90;;;12.30;99.90;;;;;;4847064;29;20030;-89
2023/09/14 06:01:05;;;;;;;;;;;;;;;;;;;;;
2023/09/14 06:03:43;;;;;;;9.07;3.30;;;12.40;99.90;;;;;;4862692;29;20045;-89
2023/09/14 06:06:16;;;;;;;7.40;3.47;;;12.40;99.90;;;;;;4859944;29;20056;-89
2023/09/14 06:08:50;;;;;;;10.30;3.35;;;12.50;99.90;;;;;;4862934;29;20037;-89
2023/09/14 06:11:42;;;;;;;8.45;3.42;;;12.50;99.90;;;;;;4865778;29;20059;-88
2023/09/14 06:14:19;;;;;;;7.15;3.33;;;12.60;99.90;;;;;;4851175;29;20059;-87
2023/09/14 06:17:01;;;;;;;;;;;;;;;;;;;;;
2023/09/14 06:19:44;;;;;;;13.38;3.50;;;12.60;99.90;;;;;;4880876;29;20094;-88
2023/09/14 06:22:41;;;;;;;8.38;3.28;;;12.70;99.90;;;;;;4852844;29;20049;-88
2023/09/14 06:25:14;;;;;;;8.85;3.00;;;12.70;99.90;;;;;;4865664;29;20044;-88
2023/09/14 06:28:08;;;;;;;10.98;3.33;;;12.80;99.90;;;;;;4847161;29;20094;-88
2023/09/14 06:31:07;;;;;;;9.00;2.80;;;12.80;99.90;;;;;;4831835;29;20090;-88
2023/09/14 06:33:54;;;;;;;7.55;2.90;;;12.90;99.90;;;;;;4833631;29;20086;-88
2023/09/14 06:36:35;;;;;;;;;;;;;;;;;;;;;
2023/09/14 06:39:07;;;;;;;9.15;2.70;;;13.00;99.90;;;;;;4845932;29;20038;-88
2023/09/14 06:41:44;;;;;;;13.48;2.90;;;13.10;99.90;;;;;;4846766;29;20034;-87
2023/09/14 06:44:25;;;;;;;6.22;2.30;;;13.10;99.90;;;;;;4848196;29;20048;-88
2023/09/14 06:47:11;;;;;;;8.55;2.40;;;13.20;99.90;;;;;;4832722;29;20039;-88
2023/09/14 06:50:15;;;;;;;8.55;2.20;;;13.20;99.90;;;;;;4848720;29;20033;-88
2023/09/14 06:53:06;;;;;;;8.88;2.17;;;13.30;99.90;;;;;;4850840;29;20412;-88
2023/09/14 06:55:46;;;;;;;9.63;2.92;;;13.30;99.90;;;;;;4850281;29;20041;-88
2023/09/14 06:58:25;;;;;;;7.82;2.45;;;13.40;99.90;;;;;;4867281;29;20048;-89
2023/09/14 07:01:25;;;;;;;6.17;2.50;;;13.50;99.90;;;;;;4856132;29;20142;-88
2023/09/14 07:04:11;;;;;;;6.63;2.08;;;13.60;99.90;;;;;;4841925;29;20284;-88
2023/09/14 07:07:10;;;;;;;6.53;2.38;;;13.60;99.90;;;;;;4849672;29;20416;-88
2023/09/14 07:10:15;;;;;;;8.60;2.22;;;13.70;99.90;;;;;;4868289;29;20136;-88
2023/09/14 07:13:05;;;;;;;;;;;;;;;;;;;;;
2023/09/14 07:16:24;;;;;;;;;;;;;;;;;;;;;
2023/09/14 07:19:28;;;;;;;;;;;;;;;;;;;;;
2023/09/14 07:22:25;;;;;;;7.93;2.08;;;13.90;99.90;;;;;;4876706;29;20033;-88
2023/09/14 07:24:59;;;;;;;8.55;2.15;;;14.00;99.90;;;;;;4852614;29;20093;-88
2023/09/14 07:27:55;;;;;;;6.63;2.20;;;13.90;99.90;;;;;;4854609;29;20121;-87
2023/09/14 07:30:54;;;;;;;5.60;2.10;;;13.90;99.90;;;;;;4856758;29;20382;-88
2023/09/14 07:33:26;;;;;;;7.53;2.33;;;14.00;99.90;;;;;;4853504;29;20045;-88
2023/09/14 07:36:03;;;;;;;10.77;2.53;;;14.00;99.90;;;;;;4853334;29;20497;-89
2023/09/14 07:38:44;;;;;;;;;;;;;;;;;;;;;
2023/09/14 07:41:44;;;;;;;;;;;;;;;;;;;;;
2023/09/14 07:44:45;;;;;;;;;;;;;;;;;;;;;
2023/09/14 07:47:29;;;;;;;;;;;;;;;;;;;;;
2023/09/14 07:50:21;;;;;;;7.88;2.17;;;14.30;99.90;;;;;;4853347;29;20093;-87
2023/09/14 07:53:03;;;;;;;6.78;2.42;;;14.30;99.90;;;;;;4856033;29;20041;-88
2023/09/14 07:55:42;;;;;;;5.93;2.15;;;14.30;99.90;;;;;;4826785;29;20037;-88
2023/09/14 07:58:38;;;;;;;7.53;2.35;;;14.30;99.90;;;;;;4854866;29;20040;-88
2023/09/14 08:01:33;;;;;;;8.90;2.60;;;14.40;99.90;;;;;;4845585;29;20056;-87
2023/09/14 08:04:04;;;;;;;8.63;2.60;;;14.40;99.90;;;;;;4852990;29;20077;-87
2023/09/14 08:07:08;;;;;;;11.48;2.85;;;14.40;99.90;;;;;;4869980;29;20053;-88
2023/09/14 08:10:06;;;;;;;9.68;2.50;;;14.40;99.90;;;;;;4832761;29;20485;-88
2023/09/14 08:13:00;;;;;;;;;;;;;;;;;;;;;
2023/09/14 08:16:11;;;;;;;9.35;2.97;;;14.60;99.90;;;;;;4838895;29;20045;-88
2023/09/14 08:18:54;;;;;;;;;;;;;;;;;;;;;
2023/09/14 08:21:23;;;;;;;8.63;2.88;;;14.70;99.90;;;;;;4849048;29;20041;-88
2023/09/14 08:24:05;;;;;;;13.20;3.00;;;14.80;99.90;;;;;;4836031;29;20045;-88
2023/09/14 08:27:08;;;;;;;10.98;2.65;;;14.90;99.90;;;;;;4847142;29;20033;-88
2023/09/14 08:30:09;;;;;;;12.77;2.83;;;15.10;99.90;;;;;;4841872;29;20375;-88
2023/09/14 08:32:57;;;;;;;14.20;3.08;;;15.20;99.90;;;;;;4839955;29;20044;-88
2023/09/14 08:35:54;;;;;;;11.48;2.58;;;15.30;99.90;;;;;;4854975;29;20041;-87
2023/09/14 08:38:38;;;;;;;;;;;;;;;;;;;;;
2023/09/14 08:41:46;;;;;;;10.75;2.47;;;15.50;99.90;;;;;;4868558;29;20044;-88
2023/09/14 08:44:20;;;;;;;12.07;2.78;;;15.60;99.90;;;;;;4883552;29;20113;-87
2023/09/14 08:46:54;;;;;;;8.75;2.30;;;15.70;99.90;;;;;;4867193;29;20119;-87
2023/09/14 08:49:34;;;;;;;13.02;2.85;;;15.80;99.90;;;;;;4866951;29;20033;-88
2023/09/14 08:52:35;;;;;;;9.30;2.63;;;15.90;99.90;;;;;;4851824;29;20037;-88
2023/09/14 08:55:14;;;;;;;8.70;2.30;;;16.00;99.90;;;;;;4866694;29;20067;-88
2023/09/14 08:58:19;;;;;;;8.63;2.35;;;16.20;99.90;;;;;;4866365;29;20074;-88
2023/09/14 09:01:47;;;;;;;;;;;;;;;;;;;;;
2023/09/14 09:04:29;;;;;;;11.05;2.50;;;16.60;99.90;;;;;;4850914;29;20448;-87
2023/09/14 09:07:41;;;;;;;10.82;2.47;;;16.80;99.90;;;;;;4836180;29;20052;-88
2023/09/14 09:10:45;;;;;;;13.63;2.50;;;16.90;99.90;;;;;;4848524;29;20037;-88
2023/09/14 09:13:46;;;;;;;10.32;2.53;;;17.00;99.90;;;;;;4823666;29;20042;-88
2023/09/14 09:16:47;;;;;;;;;;;;;;;;;;;;;
2023/09/14 09:19:47;;;;;;;14.18;2.80;;;17.20;99.90;;;;;;4868046;29;20060;-87
2023/09/14 09:25:42;;;;;;;10.80;2.88;;;17.40;99.90;;;;;;4866349;29;20037;-88
2023/09/14 09:28:35;;;;;;;8.93;2.42;;;17.50;99.90;;;;;;4866569;29;20029;-88
2023/09/14 09:31:02;;;;;;;11.10;2.40;;;17.50;99.90;;;;;;4851440;29;20118;-88
2023/09/14 09:33:47;;;;;;;8.35;2.50;;;17.60;99.90;;;;;;4850698;29;20033;-88
2023/09/14 09:36:52;;;;;;;18.77;2.70;;;17.80;99.90;;;;;;4833019;29;20037;-88
2023/09/14 09:39:35;;;;;;;9.63;2.47;;;17.90;99.90;;;;;;4836325;29;20100;-89
2023/09/14 09:42:22;;;;;;;13.70;2.88;;;18.10;99.90;;;;;;4848054;29;20030;-89
2023/09/14 09:45:02;;;;;;;6.60;2.47;;;18.10;99.90;;;;;;4817500;29;20038;-88
2023/09/14 09:48:11;;;;;;;9.02;2.55;;;18.10;99.90;;;;;;4836534;29;20438;-88
2023/09/14 09:50:52;;;;;;;10.18;2.53;;;18.10;99.90;;;;;;4839338;29;20032;-88
2023/09/14 09:53:37;;;;;;;11.32;2.80;;;18.00;99.90;;;;;;4867489;29;20033;-87
2023/09/14 09:56:19;;;;;;;10.02;2.40;;;17.90;99.90;;;;;;4866021;29;20053;-88
2023/09/14 09:58:48;;;;;;;13.82;3.05;;;17.90;99.90;;;;;;4850622;29;20033;-90
2023/09/14 10:01:28;;;;;;;9.35;2.40;;;17.80;99.90;;;;;;4837227;29;20453;-88
2023/09/14 10:04:19;;;;;;;;;;;;;;;;;;;;;
2023/09/14 10:07:06;;;;;;;;;;;;;;;;;;;;;
2023/09/14 10:09:44;;;;;;;9.85;2.35;;;17.80;99.90;;;;;;4867044;29;20033;-88
2023/09/14 10:12:32;;;;;;;8.43;2.30;;;17.80;99.90;;;;;;4851105;29;20039;-88
2023/09/14 10:15:20;;;;;;;8.80;2.72;;;17.80;99.90;;;;;;4843569;29;20032;-88
2023/09/14 10:18:19;;;;;;;12.68;3.03;;;17.80;99.90;;;;;;4823946;29;20453;-88
2023/09/14 10:20:49;;;;;;;10.75;2.88;;;18.00;99.90;;;;;;4817099;29;20052;-88
2023/09/14 10:23:24;;;;;;;7.72;2.25;;;18.00;99.90;;;;;;4847257;29;20329;-88
2023/09/14 10:26:02;;;;;;;10.18;2.70;;;18.10;99.90;;;;;;4835805;29;20040;-88
2023/09/14 10:28:36;;;;;;;8.27;2.40;;;18.30;99.90;;;;;;4850578;29;20036;-88
2023/09/14 10:31:08;;;;;;;11.85;2.60;;;18.40;99.90;;;;;;4850331;29;20037;-88
2023/09/14 10:33:45;;;;;;;10.82;2.55;;;18.50;99.90;;;;;;4865720;29;20395;-87
2023/09/14 10:36:22;;;;;;;10.52;2.58;;;18.50;99.90;;;;;;4865545;29;20060;-88
2023/09/14 10:39:05;;;;;;;9.23;2.75;;;18.50;99.90;;;;;;4851610;29;20378;-88
2023/09/14 10:41:40;;;;;;;12.23;2.57;;;18.60;99.90;;;;;;4836426;29;20037;-88
2023/09/14 10:44:14;;;;;;;8.88;2.75;;;18.50;99.90;;;;;;4851008;29;20283;-88
2023/09/14 10:46:48;;;;;;;9.32;2.80;;;18.50;99.90;;;;;;4851402;29;20045;-88
2023/09/14 10:49:41;;;;;;;10.30;2.60;;;18.60;99.90;;;;;;4827250;29;20052;-88
2023/09/14 10:52:42;;;;;;;11.85;2.47;;;18.70;99.90;;;;;;4843899;29;20030;-89
2023/09/14 10:55:41;;;;;;;9.23;2.67;;;18.90;99.90;;;;;;4832273;29;20125;-88
2023/09/14 10:58:20;;;;;;;9.32;2.58;;;19.20;99.90;;;;;;4833046;29;20053;-88
2023/09/14 11:01:01;;;;;;;11.75;2.50;;;19.20;99.90;;;;;;4832919;29;20070;-88
2023/09/14 11:04:14;;;;;;;8.07;3.10;;;19.30;99.90;;;;;;4841306;29;20045;-88
2023/09/14 11:07:09;;;;;;;11.27;3.00;;;19.30;99.90;;;;;;4849859;29;20052;-88
2023/09/14 11:10:26;;;;;;;7.72;2.45;;;19.10;99.90;;;;;;4864878;29;20060;-88
2023/09/14 11:13:19;;;;;;;7.60;2.78;;;18.90;99.90;;;;;;4862774;29;20044;-88
2023/09/14 11:16:25;;;;;;;11.40;2.80;;;18.80;99.90;;;;;;4850942;29;20433;-89
2023/09/14 11:19:53;;;;;;;16.00;3.15;;;18.90;99.90;;;;;;4832407;29;20086;-88
2023/09/14 11:22:30;;;;;;;12.68;3.03;;;19.00;99.90;;;;;;4807754;29;20083;-89
2023/09/14 11:25:00;;;;;;;10.50;2.90;;;19.10;99.90;;;;;;4831895;29;20030;-89
2023/09/14 11:28:08;;;;;;;;;;;;;;;;;;;;;
2023/09/14 11:30:58;;;;;;;9.52;2.85;;;19.30;99.90;;;;;;4850210;29;20043;-88
2023/09/14 11:33:33;;;;;;;10.45;2.80;;;19.50;99.90;;;;;;4849839;29;20044;-88
2023/09/14 11:36:05;;;;;;;9.35;2.70;;;19.60;99.90;;;;;;4834165;29;20453;-88
2023/09/14 11:39:07;;;;;;;;;;;;;;;;;;;;;
2023/09/14 11:45:08;;;;;;;8.90;2.47;;;19.20;99.90;;;;;;4839692;29;20447;-87
2023/09/14 11:47:59;;;;;;;;;;;;;;;;;;;;;
2023/09/14 11:50:37;;;;;;;9.68;2.40;;;19.40;99.90;;;;;;4853285;29;20032;-88
2023/09/14 11:53:22;;;;;;;8.48;2.38;;;19.40;99.90;;;;;;4841817;29;20089;-88
2023/09/14 11:56:19;;;;;;;8.80;2.53;;;19.50;99.90;;;;;;4868214;29;20052;-88
2023/09/14 11:59:17;;;;;;;8.98;2.58;;;19.60;99.90;;;;;;4884399;29;20040;-89
2023/09/14 12:02:03;;;;;;;10.95;2.60;;;19.80;99.90;;;;;;4870665;29;20493;-88
2023/09/14 12:04:54;;;;;;;;;;;;;;;;;;;;;
2023/09/14 12:07:41;;;;;;;9.80;2.92;;;19.80;99.90;;;;;;4847726;29;20420;-89
2023/09/14 12:10:20;;;;;;;5.85;2.13;;;19.80;99.90;;;;;;4834086;29;20132;-87
2023/09/14 12:13:21;;;;;;;11.68;2.53;;;19.80;99.90;;;;;;4838213;29;20033;-89
2023/09/14 12:16:43;;;;;;;8.77;2.60;;;19.90;99.90;;;;;;4834571;29;20044;-88
2023/09/14 12:19:29;;;;;;;11.20;3.03;;;20.00;99.90;;;;;;4838210;29;20374;-88
2023/09/14 12:22:17;;;;;;;;;;;;;;;;;;;;;
2023/09/14 12:25:18;;;;;;;12.65;2.78;;;19.90;99.90;;;;;;4867572;29;20032;-88
2023/09/14 12:27:56;;;;;;;8.93;2.38;;;19.90;99.90;;;;;;4884046;29;20416;-88
2023/09/14 12:30:35;;;;;;;;;;;;;;;;;;;;;
2023/09/14 12:33:45;;;;;;;8.43;2.67;;;19.80;99.90;;;;;;4849166;29;20041;-88
2023/09/14 12:37:00;;;;;;;8.23;2.85;;;19.80;99.90;;;;;;4836323;29;20041;-88
2023/09/14 12:40:01;;;;;;;;;;;;;;;;;;;;;
2023/09/14 12:42:42;;;;;;;11.27;2.80;;;19.80;99.90;;;;;;4849139;29;20043;-88
2023/09/14 12:45:33;;;;;;;;;;;;;;;;;;;;;
2023/09/14 12:48:16;;;;;;;8.63;2.65;;;19.90;99.90;;;;;;4866875;29;20053;-89
2023/09/14 12:51:13;;;;;;;7.78;2.70;;;19.80;99.90;;;;;;4882615;29;20168;-87
2023/09/14 12:53:53;;;;;;;8.85;2.70;;;19.90;99.90;;;;;;4867423;29;20036;-88
2023/09/14 12:56:27;;;;;;;9.32;2.72;;;19.90;99.90;;;;;;4851812;29;20204;-88
2023/09/14 12:59:25;;;;;;;10.05;2.75;;;20.00;99.90;;;;;;4868130;29;20043;-88
2023/09/14 13:02:13;;;;;;;7.10;2.50;;;20.00;99.90;;;;;;4836653;29;20041;-88
2023/09/14 13:04:50;;;;;;;8.98;2.53;;;20.00;99.90;;;;;;4835981;29;20108;-88
2023/09/14 13:07:30;;;;;;;12.00;3.00;;;20.00;99.90;;;;;;4818415;29;20116;-88
2023/09/14 13:10:40;;;;;;;8.50;2.80;;;20.10;99.90;;;;;;4836504;29;20037;-88
2023/09/14 13:13:41;;;;;;;10.35;3.38;;;20.10;99.90;;;;;;4828383;29;20417;-88
2023/09/14 13:16:28;;;;;;;;;;;;;;;;;;;;;
2023/09/14 13:19:20;;;;;;;;;;;;;;;;;;;;;
2023/09/14 13:22:12;;;;;;;6.88;2.58;;;20.20;99.90;;;;;;4860699;29;20322;-88
2023/09/14 13:24:49;;;;;;;8.30;2.70;;;20.20;99.90;;;;;;4856195;29;20041;-88
2023/09/14 13:28:15;;;;;;;8.27;2.97;;;20.30;99.90;;;;;;4876080;29;20128;-88
2023/09/14 13:31:05;;;;;;;8.38;2.83;;;20.30;99.90;;;;;;4869301;29;20341;-88
2023/09/14 13:36:43;;;;;;;8.43;2.60;;;20.20;99.90;;;;;;4851096;29;19915;-88
2023/09/14 13:39:18;;;;;;;8.27;3.13;;;20.30;99.90;;;;;;4836489;29;20187;-88
2023/09/14 13:42:13;;;;;;;8.93;2.70;;;20.30;99.90;;;;;;4851647;29;20357;-88
2023/09/14 13:45:11;;;;;;;;;;;;;;;;;;;;;
2023/09/14 13:48:03;;;;;;;;;;;;;;;;;;;;;
2023/09/14 13:50:32;;;;;;;8.05;2.60;;;20.60;99.90;;;;;;4851005;29;20414;-88
2023/09/14 13:53:05;;;;;;;9.13;3.00;;;20.70;99.90;;;;;;4851355;29;20029;-88
2023/09/14 13:55:44;;;;;;;7.75;2.75;;;20.80;99.90;;;;;;4881727;29;20056;-88
2023/09/14 13:58:43;;;;;;;;;;;;;;;;;;;;;
2023/09/14 14:01:33;;;;;;;7.60;2.75;;;20.90;99.90;;;;;;4850329;29;20453;-88
2023/09/14 14:04:11;;;;;;;8.07;2.53;;;21.00;99.90;;;;;;4850719;29;20037;-88
2023/09/14 14:06:54;;;;;;;9.35;2.45;;;21.00;99.90;;;;;;4835610;29;20048;-88
2023/09/14 14:09:52;;;;;;;9.52;2.65;;;21.10;99.90;;;;;;4835725;29;20033;-88
2023/09/14 14:12:38;;;;;;;8.27;2.95;;;21.30;99.90;;;;;;4827614;29;20113;-88
2023/09/14 14:15:37;;;;;;;7.65;2.60;;;21.30;99.90;;;;;;4853336;29;20045;-88
2023/09/14 14:18:27;;;;;;;;;;;;;;;;;;;;;
2023/09/14 14:21:29;;;;;;;9.27;3.03;;;21.40;99.90;;;;;;4833341;29;20109;-88
2023/09/14 14:24:13;;;;;;;8.73;3.00;;;21.40;99.90;;;;;;4823960;29;20041;-88
2023/09/14 14:27:04;;;;;;;12.80;2.70;;;21.60;99.90;;;;;;4822252;29;20452;-88
2023/09/14 14:29:56;;;;;;;8.27;2.97;;;21.80;99.90;;;;;;4836777;29;20394;-88
2023/09/14 14:32:41;;;;;;;8.30;2.72;;;23.60;98.70;;;;;;4822128;29;20049;-88
2023/09/14 14:35:26;;;;;;;9.73;3.08;;;25.80;97.50;;;;;;4867970;29;20117;-88
2023/09/14 14:38:26;;;;;;;7.55;2.83;;;27.80;95.40;;;;;;4845558;29;20041;-93
2023/09/14 14:40:55;;;;;;;10.52;3.20;;;27.50;92.80;;;;;;4850720;29;20124;-88
2023/09/14 14:43:29;;;;;;;11.13;3.45;;;26.70;93.90;;;;;;4850587;29;20671;-88
2023/09/14 14:46:15;;;;;;;7.80;2.78;;;27.40;93.20;;;;;;4851777;29;20053;-88
2023/09/14 14:48:56;;;;;;;9.65;3.20;;;28.10;92.00;;;;;;4865678;29;20033;-88
2023/09/14 14:51:50;;;;;;;;;;;;;;;;;;;;;
2023/09/14 14:54:41;;;;;;;6.07;2.80;;;29.50;92.80;;;;;;4865011;29;20069;-89
2023/09/14 14:57:28;;;;;;;6.70;2.65;;;29.80;91.50;;;;;;4835530;29;20052;-91
2023/09/14 15:00:06;;;;;;;10.43;3.00;;;28.10;91.40;;;;;;4821609;29;20072;-88
2023/09/14 15:03:08;;;;;;;8.52;3.00;;;26.80;92.80;;;;;;4852151;29;20774;-89
2023/09/14 15:06:26;;;;;;;7.63;2.70;;;25.50;93.10;;;;;;4839546;29;20033;-88
2023/09/14 15:09:07;;;;;;;9.13;3.03;;;24.40;94.30;;;;;;4862630;29;20418;-88
2023/09/14 15:11:43;;;;;;;9.27;2.88;;;23.60;95.20;;;;;;4830957;29;20105;-88
2023/09/14 15:14:28;;;;;;;10.25;3.30;;;23.10;95.70;;;;;;4846532;29;20037;-89
2023/09/14 15:17:04;;;;;;;10.30;3.67;;;22.50;95.60;;;;;;4862729;29;20066;-88
2023/09/14 15:19:40;;;;;;;13.38;3.50;;;22.20;96.50;;;;;;4847392;29;20154;-88
2023/09/14 15:22:16;;;;;;;6.95;2.80;;;22.00;97.20;;;;;;4853854;29;20457;-88
2023/09/14 15:24:44;;;;;;;8.15;2.78;;;22.00;98.90;;;;;;4885166;29;20037;-88
2023/09/14 15:27:14;;;;;;;10.15;3.17;;;23.10;96.70;;;;;;4853696;29;20037;-88
2023/09/14 15:30:18;;;;;;;9.25;3.10;;;23.60;96.70;;;;;;4885357;29;20085;-89
2023/09/14 15:33:06;;;;;;;7.55;2.92;;;24.20;95.20;;;;;;4858473;29;20021;-88
2023/09/14 15:35:37;;;;;;;8.13;3.13;;;23.90;95.00;;;;;;4852980;29;20025;-89
2023/09/14 15:38:53;;;;;;;10.00;3.25;;;23.70;94.20;;;;;;4843521;29;20116;-90
2023/09/14 15:41:50;;;;;;;15.85;8.07;;;23.30;95.20;;;;;;4854080;29;20064;-89
2023/09/14 15:44:19;;;;;;;7.82;3.00;;;23.00;96.80;;;;;;4838677;29;20056;-89
2023/09/14 15:46:55;;;;;;;10.05;3.13;;;22.80;96.10;;;;;;4853683;29;20152;-89
2023/09/14 15:50:17;;;;;;;8.75;3.45;;;22.70;95.40;;;;;;4833584;29;20049;-91
2023/09/14 15:53:11;;;;;;;12.55;3.30;;;22.40;96.20;;;;;;4853595;29;20033;-89
2023/09/14 15:55:54;;;;;;;;;;;;;;;;;;;;;